logo dgac
Lunes 20 de Mayo del 2019
Buscar por aerodromo o helipuerto
Ingrese nombre de aeródromo, localidad o designador OACI:

Aeródromo: Pichoy (PUB) (SCVD)

Ubicación: Valdivia, XIV Región, Chile (39º 38' 58'' S, 73º 05' 11'' W) Ver ubicación en el mapa

Pistas

Orientación Dimensión Pendiente Superficie Resistencia APCH THR RWY PAPI
17/35 2100 x 45 0,07 ASPH PCN 57 F/C/W/T Sí (3º)
Horas de operación HJ
Elevación 18 m / 59 ft
Otra Información Adm : DGAC
Uso : PUB
TEL : (56-63)2314302 FAX (56-63)2314316 Anexos ARO 4306/4307
Ubicado a 32 km NE de Valdivia

Otra información ver AIP-Chile Volumen I AD 3.9-20.1-V




CCCM/FCCV Descargar
andera de Chile
Mapa de Pichoy (PUB) (SCVD)

Último METAR

METAR SCVD 201500Z 16006KT 120V200 9999 BKN020 10/06 Q1026

Último TAF

TAF SCVD 201108Z 2012/2024 20007KT 9999 OVC018 TN06/2012Z TX13/2019Z BECMG 2014/2016 17011KT CAVOK

Últimas fotos cámaras

Imagen aerodromo Pichoy (PUB) (SCVD) Norte tomada el 20-05-2019 11:35:17 Imagen aerodromo Pichoy (PUB) (SCVD) Sur tomada el 19-03-2019 01:15:17

Último NOTAM

C1254/19 NOTAMN Q)SCTZ/QFAXX/IV/NBO/A/000/999/3939S07305W005 A)SCVD B)1904121601 C)1907112359 E)ACFT CON INTENCIONES DE OPR EN AD FUERA HR SER COOR BFR TEL CTC 991581743

LLegadas a Pichoy (PUB) (SCVD)

En vuelo

Vuelo Procedencia Hora Despegue Local Hora Arribo Local
SKU123 Arturo Merino Benitez (INTL) (PUB) (SCEL) 10:54 12:04

Salidas de Pichoy (PUB) (SCVD)

En vuelo

Vuelo Hacia Hora Despegue Local Hora Arribo Local